Time;durP1;ratioP1;P1;durP2;ratioP2;P2;SDS_P1;SDS_P2;PMS_P1;PMS_P2;Temp;Humidity;BMP_temperature;BMP_pressure;BME280_temperature;BME280_humidity;BME280_pressure;Samples;Min_cycle;Max_cycle;Signal;HPM_P1;HPM_P2
2021/04/15 00:00:35;;;;;;;6.37;5.77;;;;;;;-2.60;87.72;98951.44;5056658;28;20237;-71
2021/04/15 00:03:04;;;;;;;6.93;6.07;;;;;;;-2.75;87.08;98940.72;5061329;28;20233;-71
2021/04/15 00:05:32;;;;;;;6.53;5.90;;;;;;;-2.84;87.73;98939.31;5054791;28;20227;-72
2021/04/15 00:08:00;;;;;;;6.83;6.17;;;;;;;-2.88;87.98;98942.06;5058994;28;20199;-71
2021/04/15 00:10:31;;;;;;;6.80;6.27;;;;;;;-2.95;88.96;98941.47;5056701;28;20222;-71
2021/04/15 00:13:00;;;;;;;8.60;6.37;;;;;;;-3.03;89.87;98944.31;5058810;28;20207;-72
2021/04/15 00:15:28;;;;;;;6.93;6.27;;;;;;;-3.09;90.03;98937.59;4995517;28;20207;-71
2021/04/15 00:17:55;;;;;;;6.83;5.87;;;;;;;-3.14;90.43;98936.09;5060943;28;20730;-72
2021/04/15 00:20:23;;;;;;;6.83;6.23;;;;;;;-3.17;90.96;98934.44;5055006;28;20313;-71
2021/04/15 00:22:51;;;;;;;6.50;5.90;;;;;;;-3.14;90.56;98933.50;5058391;28;20204;-71
2021/04/15 00:25:18;;;;;;;5.50;5.00;;;;;;;-3.16;90.73;98928.34;5057053;28;20334;-72
2021/04/15 00:27:45;;;;;;;6.00;5.47;;;;;;;-3.22;90.75;98928.56;5055372;28;20222;-71
2021/04/15 00:30:13;;;;;;;6.77;5.73;;;;;;;-3.30;91.66;98923.66;5060760;28;20230;-71
2021/04/15 00:32:40;;;;;;;6.57;5.73;;;;;;;-3.36;91.57;98929.06;5054866;28;20668;-71
2021/04/15 00:35:09;;;;;;;5.53;5.13;;;;;;;-3.42;92.26;98931.84;5059100;28;20210;-72
2021/04/15 00:37:36;;;;;;;6.10;5.60;;;;;;;-3.49;93.00;98929.47;5057192;28;20658;-71
2021/04/15 00:40:07;;;;;;;5.70;5.30;;;;;;;-3.50;92.92;98934.69;5055663;28;20309;-72
2021/04/15 00:42:36;;;;;;;7.23;6.30;;;;;;;-3.51;92.92;98928.69;5059643;28;20294;-72
2021/04/15 00:45:07;;;;;;;7.00;6.30;;;;;;;-3.55;93.30;98927.09;5055329;28;20357;-71
2021/04/15 00:47:34;;;;;;;6.40;5.90;;;;;;;-3.55;92.87;98929.69;5055855;28;20667;-71
2021/04/15 00:50:05;;;;;;;6.20;5.63;;;;;;;-3.60;93.90;98928.97;5058654;28;20226;-71
2021/04/15 00:52:35;;;;;;;6.80;6.10;;;;;;;-3.61;94.05;98927.28;5055697;28;20256;-71
2021/04/15 00:55:08;;;;;;;7.93;6.87;;;;;;;-3.59;94.05;98924.66;5058552;28;20205;-71
2021/04/15 00:57:38;;;;;;;5.83;5.43;;;;;;;-3.60;94.77;98920.38;5056949;28;20610;-71
2021/04/15 01:00:07;;;;;;;6.20;5.70;;;;;;;-3.58;95.48;98924.63;5057374;28;20318;-71
2021/04/15 01:02:35;;;;;;;7.50;5.47;;;;;;;-3.62;95.52;98923.00;5056454;28;20199;-71
2021/04/15 01:05:10;;;;;;;6.87;6.27;;;;;;;-3.67;95.48;98922.31;5054581;28;20271;-71
2021/04/15 01:07:37;;;;;;;7.97;6.40;;;;;;;-3.75;95.92;98920.00;5055452;28;20199;-72
2021/04/15 01:10:06;;;;;;;5.97;5.37;;;;;;;-3.76;97.48;98918.31;5055947;28;20218;-71
2021/04/15 01:12:51;;;;;;;5.80;5.30;;;;;;;-3.71;96.97;98908.63;5055915;28;20199;-71
2021/04/15 01:15:27;;;;;;;7.83;7.03;;;;;;;-3.58;98.05;98911.66;5057500;28;20200;-71
2021/04/15 01:17:57;;;;;;;6.73;6.20;;;;;;;-3.74;97.38;98910.47;5058901;28;20549;-71
2021/04/15 01:20:57;;;;;;;6.03;5.50;;;;;;;-3.54;98.02;98909.78;5052479;28;20214;-71
2021/04/15 01:23:29;;;;;;;6.90;6.30;;;;;;;-3.68;97.84;98915.44;5055064;28;20505;-71
2021/04/15 01:26:28;;;;;;;6.40;5.83;;;;;;;-3.79;98.06;98911.47;5062613;28;20300;-72
2021/04/15 01:29:09;;;;;;;6.03;5.60;;;;;;;-3.84;98.30;98915.97;5061399;28;20272;-71
2021/04/15 01:31:48;;;;;;;7.20;6.00;;;;;;;-3.88;97.86;98922.16;5060200;28;20602;-71
2021/04/15 01:34:20;;;;;;;7.20;6.50;;;;;;;-3.92;98.49;98915.38;5060506;28;20210;-72
2021/04/15 01:36:52;;;;;;;6.63;5.93;;;;;;;-3.92;99.04;98915.38;5062210;28;21001;-71
2021/04/15 01:39:22;;;;;;;8.73;6.43;;;;;;;-3.93;98.87;98911.09;5058798;28;20214;-71
2021/04/15 01:41:54;;;;;;;6.03;5.53;;;;;;;-4.00;99.34;98912.16;5060238;28;20302;-71
2021/04/15 01:44:29;;;;;;;6.00;5.50;;;;;;;-4.03;99.17;98907.94;5058525;28;20301;-72
2021/04/15 01:47:01;;;;;;;6.93;6.33;;;;;;;-4.03;100.00;98902.75;5060019;28;20711;-71
2021/04/15 01:49:31;;;;;;;7.43;6.00;;;;;;;-4.05;100.00;98903.69;5056619;28;20380;-71
2021/04/15 01:51:59;;;;;;;6.40;5.80;;;;;;;-4.05;100.00;98908.88;5061200;28;20344;-72
2021/04/15 01:54:32;;;;;;;5.47;5.07;;;;;;;-4.10;100.00;98904.69;5059553;28;20208;-70
2021/04/15 01:57:02;;;;;;;6.70;6.10;;;;;;;-4.16;100.00;98912.66;5060786;28;20570;-72
2021/04/15 01:59:33;;;;;;;6.57;6.07;;;;;;;-4.18;100.00;98906.69;5058496;28;20200;-72
2021/04/15 02:02:05;;;;;;;7.10;6.40;;;;;;;-4.22;100.00;98916.28;5059489;28;20290;-72
2021/04/15 02:04:38;;;;;;;5.63;5.03;;;;;;;-4.26;100.00;98916.44;5060583;28;20198;-72
2021/04/15 02:07:09;;;;;;;6.80;6.10;;;;;;;-4.19;100.00;98920.53;5059915;28;20348;-72
2021/04/15 02:09:38;;;;;;;5.90;5.33;;;;;;;-4.21;100.00;98919.72;5059268;28;20790;-72
2021/04/15 02:12:08;;;;;;;6.40;5.77;;;;;;;-4.29;100.00;98919.97;5057948;28;20672;-72
2021/04/15 02:14:40;;;;;;;5.83;5.27;;;;;;;-4.29;100.00;98922.56;5058437;28;20708;-72
2021/04/15 02:17:09;;;;;;;8.13;7.03;;;;;;;-4.33;100.00;98918.38;5059358;28;20210;-72
2021/04/15 02:19:39;;;;;;;6.20;5.60;;;;;;;-4.34;100.00;98929.63;5059720;28;20313;-72
2021/04/15 02:22:09;;;;;;;5.77;5.30;;;;;;;-4.39;100.00;98921.97;5059070;28;20555;-72
2021/04/15 02:24:46;;;;;;;6.50;5.90;;;;;;;-4.38;100.00;98925.44;5060058;28;20536;-72
2021/04/15 02:27:17;;;;;;;6.70;6.00;;;;;;;-4.42;100.00;98923.84;5059906;28;20227;-72
2021/04/15 02:29:50;;;;;;;6.20;5.70;;;;;;;-4.37;100.00;98930.53;5063357;28;20330;-72
2021/04/15 02:32:20;;;;;;;6.20;5.70;;;;;;;-4.41;100.00;98923.78;5062613;28;20205;-72
2021/04/15 02:34:49;;;;;;;6.73;5.93;;;;;;;-4.35;100.00;98930.50;5059097;28;20229;-72
2021/04/15 02:37:18;;;;;;;7.40;6.40;;;;;;;-4.43;100.00;98927.31;5061113;28;20217;-72
2021/04/15 02:39:47;;;;;;;6.80;6.27;;;;;;;-4.40;100.00;98927.22;5060587;28;20231;-72
2021/04/15 02:42:19;;;;;;;6.50;6.00;;;;;;;-4.45;100.00;98923.94;5059108;28;20663;-72
2021/04/15 02:44:49;;;;;;;6.20;5.63;;;;;;;-4.48;100.00;98931.78;5059247;28;20225;-72
2021/04/15 02:47:21;;;;;;;7.10;6.50;;;;;;;-4.46;100.00;98925.66;5059093;28;20227;-72
2021/04/15 02:49:50;;;;;;;6.97;6.10;;;;;;;-4.47;100.00;98926.56;5060555;28;20218;-72
2021/04/15 02:52:21;;;;;;;6.27;5.77;;;;;;;-4.43;100.00;98922.97;5059892;28;20260;-72
2021/04/15 02:54:51;;;;;;;7.17;6.50;;;;;;;-4.48;100.00;98924.84;5059651;28;20211;-72
2021/04/15 02:57:20;;;;;;;6.73;6.23;;;;;;;-4.50;100.00;98926.66;5057936;28;20204;-72
2021/04/15 02:59:51;;;;;;;6.60;5.97;;;;;;;-4.57;100.00;98931.16;5058192;28;20229;-73
2021/04/15 03:02:21;;;;;;;7.40;6.27;;;;;;;-4.58;100.00;98926.03;5053888;28;20218;-73
2021/04/15 03:04:53;;;;;;;5.93;5.33;;;;;;;-4.65;100.00;98927.94;5060367;28;20238;-73
2021/04/15 03:07:21;;;;;;;6.53;6.03;;;;;;;-4.65;100.00;98926.22;5057260;28;20253;-73
2021/04/15 03:09:48;;;;;;;7.10;5.97;;;;;;;-4.68;100.00;98933.22;5060102;28;20223;-73
2021/04/15 03:12:19;;;;;;;6.67;6.03;;;;;;;-4.71;100.00;98926.41;5056689;28;20204;-73
2021/04/15 03:14:50;;;;;;;7.63;7.03;;;;;;;-4.73;100.00;98922.16;5057819;28;20566;-73
2021/04/15 03:17:19;;;;;;;7.03;6.43;;;;;;;-4.72;100.00;98931.63;5057662;28;20570;-73
2021/04/15 03:19:50;;;;;;;6.67;5.93;;;;;;;-4.60;100.00;98927.81;5058056;28;20227;-73
2021/04/15 03:22:22;;;;;;;6.40;5.80;;;;;;;-4.64;100.00;98929.63;5058540;28;20203;-73
2021/04/15 03:24:51;;;;;;;6.60;6.10;;;;;;;-4.71;100.00;98934.16;5057342;28;20524;-73
2021/04/15 03:27:23;;;;;;;5.90;5.07;;;;;;;-4.70;100.00;98938.44;5057961;28;20703;-73
2021/04/15 03:29:54;;;;;;;5.47;4.97;;;;;;;-4.78;100.00;98935.22;5059083;28;20262;-73
2021/04/15 03:32:24;;;;;;;5.97;5.47;;;;;;;-4.78;100.00;98934.38;5059203;28;20330;-73
2021/04/15 03:34:57;;;;;;;6.80;6.10;;;;;;;-4.74;100.00;98933.41;5057692;28;20210;-73
2021/04/15 03:37:30;;;;;;;6.27;5.70;;;;;;;-4.78;100.00;98932.63;5060058;28;20230;-73
2021/04/15 03:39:58;;;;;;;6.17;5.67;;;;;;;-4.84;100.00;98936.25;5056646;28;20382;-73
2021/04/15 03:42:29;;;;;;;6.67;5.77;;;;;;;-4.86;100.00;98934.59;5062196;28;20400;-73
2021/04/15 03:45:01;;;;;;;5.97;5.47;;;;;;;-4.88;100.00;98934.66;5056370;28;20214;-72
2021/04/15 03:47:31;;;;;;;6.57;5.67;;;;;;;-4.96;100.00;98928.81;5057629;28;20485;-72
2021/04/15 03:50:00;;;;;;;6.53;5.93;;;;;;;-4.95;100.00;98935.69;5058672;28;20222;-72
2021/04/15 03:52:31;;;;;;;6.13;5.53;;;;;;;-4.94;100.00;98935.66;5059799;28;20213;-71
2021/04/15 03:55:10;;;;;;;6.00;5.50;;;;;;;-4.96;100.00;98940.03;5055136;28;20866;-71
2021/04/15 03:57:38;;;;;;;6.47;5.87;;;;;;;-5.04;100.00;98939.41;5056719;28;20302;-71
2021/04/15 04:00:09;;;;;;;7.23;5.93;;;;;;;-5.06;100.00;98937.75;5059109;28;20732;-73
2021/04/15 04:02:39;;;;;;;5.40;5.00;;;;;;;-5.05;100.00;98940.28;5058100;28;20210;-68
2021/04/15 04:05:09;;;;;;;6.13;5.60;;;;;;;-5.07;100.00;98930.88;5058580;28;20691;-67
2021/04/15 04:07:39;;;;;;;7.60;6.20;;;;;;;-5.08;100.00;98932.63;5059756;28;20217;-67
2021/04/15 04:10:09;;;;;;;7.10;6.40;;;;;;;-5.06;100.00;98938.59;5059145;28;20237;-68
2021/04/15 04:12:40;;;;;;;6.70;6.17;;;;;;;-5.11;100.00;98936.13;5057125;28;20213;-68
2021/04/15 04:15:12;;;;;;;6.53;5.93;;;;;;;-5.03;100.00;98933.34;5057496;28;20774;-68
2021/04/15 04:17:42;;;;;;;6.90;6.20;;;;;;;-5.11;100.00;98937.88;5059943;28;20285;-67
2021/04/15 04:20:11;;;;;;;6.63;6.03;;;;;;;-5.05;100.00;98935.13;5056433;28;20844;-68
2021/04/15 04:22:44;;;;;;;6.17;5.57;;;;;;;-5.00;100.00;98935.84;5060188;28;20199;-67
2021/04/15 04:25:14;;;;;;;6.67;6.00;;;;;;;-5.05;100.00;98934.25;5056656;28;20237;-70
2021/04/15 04:27:44;;;;;;;6.67;6.07;;;;;;;-5.05;100.00;98934.25;5055565;28;20415;-71
2021/04/15 04:30:18;;;;;;;6.53;6.00;;;;;;;-5.03;100.00;98945.41;5056066;28;20241;-72
2021/04/15 04:32:46;;;;;;;6.30;5.70;;;;;;;-5.01;100.00;98947.06;5054631;28;20328;-72
2021/04/15 04:35:20;;;;;;;6.07;5.30;;;;;;;-5.00;100.00;98942.75;5058059;28;20211;-71
2021/04/15 04:37:50;;;;;;;6.53;5.93;;;;;;;-4.95;100.00;98948.63;5059225;28;20215;-72
2021/04/15 04:40:20;;;;;;;6.60;6.00;;;;;;;-4.78;100.00;98948.16;5055652;28;20254;-72
2021/04/15 04:42:52;;;;;;;6.30;5.80;;;;;;;-4.66;100.00;98949.53;5058642;28;20207;-71
2021/04/15 04:45:22;;;;;;;10.63;5.70;;;;;;;-4.82;100.00;98954.31;5057421;28;20288;-70
2021/04/15 04:47:53;;;;;;;6.17;5.57;;;;;;;-4.74;100.00;98951.50;5058882;28;20670;-70
2021/04/15 04:50:35;;;;;;;6.53;5.93;;;;;;;-4.57;100.00;98954.44;5056052;28;20223;-72
2021/04/15 04:53:04;;;;;;;6.17;5.70;;;;;;;-4.61;100.00;98954.59;5059575;28;20210;-71
2021/04/15 04:55:35;;;;;;;6.77;6.17;;;;;;;-4.64;100.00;98952.94;5058566;28;20199;-72
2021/04/15 04:58:03;;;;;;;5.93;5.53;;;;;;;-4.60;100.00;98957.13;5062366;28;20210;-72
2021/04/15 05:00:40;;;;;;;6.67;6.17;;;;;;;-4.54;100.00;98958.69;5061922;28;20308;-71
2021/04/15 05:03:07;;;;;;;6.70;5.57;;;;;;;-4.26;100.00;98961.28;5062856;28;20213;-71
2021/04/15 05:05:35;;;;;;;6.43;5.93;;;;;;;-3.99;100.00;98963.06;5062461;28;20202;-71
2021/04/15 05:08:05;;;;;;;7.07;6.43;;;;;;;-4.06;100.00;98959.84;5060875;28;20199;-72
2021/04/15 05:10:33;;;;;;;6.73;6.13;;;;;;;-3.98;100.00;98954.38;5062322;28;20250;-71
2021/04/15 05:13:12;;;;;;;6.83;6.23;;;;;;;-3.79;99.63;98952.91;5060271;28;20334;-71
2021/04/15 05:15:41;;;;;;;7.57;6.87;;;;;;;-3.69;99.44;98950.88;5063578;28;20301;-71
2021/04/15 05:18:10;;;;;;;6.40;5.83;;;;;;;-3.61;98.54;98957.53;5060775;28;20210;-71
2021/04/15 05:20:37;;;;;;;7.03;6.33;;;;;;;-3.51;97.34;98962.38;5058618;28;20586;-71
2021/04/15 05:23:08;;;;;;;8.10;6.17;;;;;;;-3.38;97.33;98965.41;5062551;28;20209;-71
2021/04/15 05:25:38;;;;;;;6.83;6.17;;;;;;;-3.31;96.67;98960.00;5060668;28;20207;-71
2021/04/15 05:28:08;;;;;;;6.37;5.83;;;;;;;-3.19;96.55;98967.34;5062338;28;20738;-71
2021/04/15 05:30:38;;;;;;;6.90;5.80;;;;;;;-3.18;96.31;98965.63;5062319;28;20267;-71
2021/04/15 05:33:08;;;;;;;7.10;6.27;;;;;;;-3.01;95.58;98965.88;5063526;28;20214;-71
2021/04/15 05:35:37;;;;;;;6.60;6.00;;;;;;;-2.95;94.52;98965.63;5060406;28;20341;-71
2021/04/15 05:38:06;;;;;;;7.13;6.20;;;;;;;-2.98;95.16;98962.31;5060391;28;20532;-71
2021/04/15 05:40:34;;;;;;;6.47;5.87;;;;;;;-2.82;94.92;98963.44;5063305;28;20699;-71
2021/04/15 05:43:13;;;;;;;6.37;5.87;;;;;;;-2.68;94.09;98973.34;5061477;28;20264;-71
2021/04/15 05:45:41;;;;;;;9.00;6.27;;;;;;;-2.60;93.57;98965.28;5060429;28;20535;-72
2021/04/15 05:48:12;;;;;;;10.73;6.63;;;;;;;-2.69;93.76;98968.19;5061218;28;20644;-71
2021/04/15 05:50:42;;;;;;;5.90;5.43;;;;;;;-2.62;93.79;98965.31;5062886;28;20635;-71
2021/04/15 05:53:14;;;;;;;8.80;6.03;;;;;;;-2.45;92.61;98958.66;5062278;28;20205;-72
2021/04/15 05:55:45;;;;;;;6.57;5.97;;;;;;;-2.51;94.13;98966.66;5061027;28;20205;-72
2021/04/15 05:58:16;;;;;;;7.00;6.47;;;;;;;-2.35;93.20;98965.19;5057421;28;20513;-72
2021/04/15 06:00:46;;;;;;;7.07;6.27;;;;;;;-2.19;92.97;98965.44;5059107;28;20223;-72
2021/04/15 06:03:22;;;;;;;6.50;5.67;;;;;;;-2.12;94.41;98962.59;5058892;28;20309;-71
2021/04/15 06:05:54;;;;;;;6.50;5.87;;;;;;;-1.99;94.54;98969.00;5059938;28;20271;-72
2021/04/15 06:08:22;;;;;;;6.47;5.73;;;;;;;-1.71;94.38;98975.69;5060951;28;20643;-71
2021/04/15 06:10:51;;;;;;;6.83;6.13;;;;;;;-1.60;93.02;98970.91;5059083;28;20218;-71
2021/04/15 06:13:23;;;;;;;7.17;6.50;;;;;;;-1.59;90.26;98969.16;5062599;28;20203;-70
2021/04/15 06:15:57;;;;;;;6.83;6.03;;;;;;;-1.44;88.48;98975.47;5060826;28;20239;-71
2021/04/15 06:18:29;;;;;;;6.90;6.20;;;;;;;-1.54;89.66;98974.16;5059242;28;20202;-71
2021/04/15 06:20:59;;;;;;;6.00;5.60;;;;;;;-1.33;87.83;98968.06;5059379;28;20735;-72
2021/04/15 06:23:29;;;;;;;6.30;5.80;;;;;;;-0.99;86.68;98970.13;5060352;28;20203;-71
2021/04/15 06:25:57;;;;;;;6.53;5.93;;;;;;;-0.96;86.92;98967.41;5058281;28;20259;-67
2021/04/15 06:28:26;;;;;;;8.50;5.80;;;;;;;-0.92;87.05;98967.22;5056434;28;20210;-69
2021/04/15 06:31:11;;;;;;;7.10;6.60;;;;;;;-0.67;85.39;98967.88;5058624;28;20235;-70
2021/04/15 06:33:39;;;;;;;6.07;5.57;;;;;;;-0.61;83.82;98973.63;5058613;28;20729;-71
2021/04/15 06:36:15;;;;;;;7.17;6.57;;;;;;;-0.72;84.73;98978.47;5058838;28;20206;-70
2021/04/15 06:38:45;;;;;;;8.23;6.37;;;;;;;-0.81;86.01;98978.91;5060502;28;20229;-72
2021/04/15 06:41:44;;;;;;;6.43;5.80;;;;;;;-0.40;83.79;98985.75;5058713;28;20222;-72
2021/04/15 06:44:43;;;;;;;6.50;5.90;;;;;;;-0.48;84.79;98978.31;5024330;28;20235;-73
2021/04/15 06:47:24;;;;;;;7.03;6.27;;;;;;;-0.44;83.97;98980.69;5056636;28;20804;-73
2021/04/15 06:50:03;;;;;;;8.40;5.63;;;;;;;-0.26;83.49;98983.38;5055173;28;20232;-74
2021/04/15 06:52:37;;;;;;;7.00;6.40;;;;;;;-0.18;82.83;98981.25;5055852;28;20203;-73
2021/04/15 06:55:23;;;;;;;7.50;6.73;;;;;;;0.04;81.87;98979.38;5058056;28;20359;-72
2021/04/15 06:58:11;;;;;;;7.73;6.10;;;;;;;-0.03;82.34;98982.28;5056567;28;20207;-74
2021/04/15 07:00:50;;;;;;;8.80;7.43;;;;;;;0.11;81.97;98980.78;5056013;28;20222;-73
2021/04/15 07:03:27;;;;;;;6.70;6.13;;;;;;;0.21;82.33;98984.66;5059735;28;20207;-73
2021/04/15 07:06:00;;;;;;;6.67;6.13;;;;;;;0.27;81.43;98980.88;5054841;28;20203;-73
2021/04/15 07:08:43;;;;;;;9.17;6.53;;;;;;;0.55;80.39;98975.16;5059254;28;20303;-73
2021/04/15 07:11:21;;;;;;;7.60;6.50;;;;;;;0.59;80.19;98973.25;5056330;28;20322;-74
2021/04/15 07:14:05;;;;;;;6.27;5.80;;;;;;;0.74;80.53;98974.25;5055419;28;20221;-72
2021/04/15 07:17:17;;;;;;;8.67;6.77;;;;;;;0.78;79.74;98970.56;5057758;28;20209;-74
2021/04/15 07:20:26;;;;;;;9.23;7.17;;;;;;;0.93;79.48;98966.31;5036817;28;20227;-74
2021/04/15 07:23:26;;;;;;;6.87;6.27;;;;;;;1.35;76.80;98966.78;5043345;28;20211;-74
2021/04/15 07:26:24;;;;;;;7.90;6.97;;;;;;;1.23;77.76;98968.25;5059871;28;20581;-74
2021/04/15 07:29:29;;;;;;;11.67;8.40;;;;;;;1.22;77.31;98966.56;5028358;28;20239;-72
2021/04/15 07:32:06;;;;;;;6.80;6.30;;;;;;;1.37;77.63;98969.28;4993248;28;20305;-74
2021/04/15 07:34:46;;;;;;;9.57;8.03;;;;;;;1.62;76.09;98974.03;5056999;28;20718;-73
2021/04/15 07:37:20;;;;;;;8.23;7.43;;;;;;;1.75;75.07;98976.84;5055542;28;20210;-73
2021/04/15 07:40:24;;;;;;;12.13;7.97;;;;;;;1.78;75.67;98968.81;5056585;28;20775;-72
2021/04/15 07:43:06;;;;;;;14.60;12.97;;;;;;;1.86;76.22;98982.31;5024746;28;20625;-73
2021/04/15 07:45:36;;;;;;;10.97;9.90;;;;;;;1.61;75.85;98977.56;5054968;28;20686;-73
2021/04/15 07:48:27;;;;;;;21.13;19.33;;;;;;;1.92;75.02;98973.28;5057715;28;20701;-73
2021/04/15 07:51:39;;;;;;;9.80;8.83;;;;;;;2.00;75.04;98976.31;5057092;28;20219;-74
2021/04/15 07:54:30;;;;;;;8.63;6.70;;;;;;;2.33;72.62;98976.28;5058054;28;20633;-74
2021/04/15 07:57:44;;;;;;;8.93;8.23;;;;;;;2.49;73.11;98976.25;5057787;28;20574;-74
2021/04/15 08:00:31;;;;;;;8.47;7.57;;;;;;;2.81;71.39;98982.22;5057887;28;20681;-72
2021/04/15 08:03:21;;;;;;;7.83;7.10;;;;;;;3.14;69.78;98981.16;5054739;28;20225;-74
2021/04/15 08:06:10;;;;;;;10.27;7.37;;;;;;;3.45;68.42;98983.69;5054898;28;20571;-74
2021/04/15 08:09:21;;;;;;;7.53;6.93;;;;;;;3.28;67.84;98982.09;5057145;28;20570;-75
2021/04/15 08:11:52;;;;;;;8.47;7.73;;;;;;;3.55;67.03;98984.81;5035793;28;20294;-73
2021/04/15 08:14:46;;;;;;;8.57;7.80;;;;;;;3.39;66.61;98984.06;5056581;28;20195;-73
2021/04/15 08:17:23;;;;;;;9.13;8.23;;;;;;;3.45;67.08;98987.16;5055317;28;20722;-72
2021/04/15 08:20:16;;;;;;;8.00;7.37;;;;;;;3.37;67.41;98981.53;5054692;28;20301;-75
2021/04/15 08:23:13;;;;;;;8.90;8.00;;;;;;;3.51;66.78;98990.31;5056291;28;20303;-73
2021/04/15 08:25:52;;;;;;;8.63;7.83;;;;;;;3.48;66.53;98983.50;5046876;28;20233;-72
2021/04/15 08:28:28;;;;;;;8.60;7.83;;;;;;;3.38;67.08;98974.50;5055135;28;20207;-72
2021/04/15 08:31:03;;;;;;;9.20;8.40;;;;;;;3.43;67.46;98986.41;5056114;28;20266;-72
2021/04/15 08:33:46;;;;;;;8.57;7.67;;;;;;;3.74;66.77;98987.13;5056409;28;20301;-73
2021/04/15 08:36:24;;;;;;;8.77;7.87;;;;;;;3.95;64.79;98984.06;5056714;28;20217;-73
2021/04/15 08:39:11;;;;;;;8.33;7.73;;;;;;;4.13;64.87;98981.22;5056813;28;20217;-74
2021/04/15 08:41:46;;;;;;;9.10;8.30;;;;;;;4.41;64.13;98980.28;5055239;28;20245;-71
2021/04/15 08:44:22;;;;;;;8.17;7.47;;;;;;;4.27;64.09;98981.16;5055126;28;20213;-72
2021/04/15 08:46:55;;;;;;;8.23;7.40;;;;;;;4.15;64.59;98971.47;5054045;28;20223;-73
2021/04/15 08:49:31;;;;;;;7.93;7.30;;;;;;;3.79;65.05;98970.25;5057868;28;20211;-72
2021/04/15 08:52:13;;;;;;;7.67;7.07;;;;;;;3.93;64.82;98978.09;5057326;28;20222;-73
2021/04/15 08:54:53;;;;;;;7.80;7.20;;;;;;;3.96;64.98;98975.25;5056911;28;20506;-72
2021/04/15 08:57:28;;;;;;;8.53;7.73;;;;;;;3.88;64.71;98973.16;5056387;28;20297;-71
2021/04/15 09:00:04;;;;;;;7.60;6.90;;;;;;;3.85;64.52;98970.72;5055355;28;20714;-73
2021/04/15 09:02:36;;;;;;;8.43;7.63;;;;;;;3.80;64.82;98972.81;5055408;28;20279;-73
2021/04/15 09:05:12;;;;;;;7.50;6.90;;;;;;;4.09;64.47;98967.47;5056104;28;20598;-73
2021/04/15 09:07:51;;;;;;;8.03;6.83;;;;;;;4.31;62.77;98971.31;5055837;28;20425;-72
2021/04/15 09:10:24;;;;;;;8.57;7.77;;;;;;;4.30;62.86;98967.03;5058069;28;20778;-73
2021/04/15 09:13:15;;;;;;;7.63;7.03;;;;;;;4.13;62.21;98968.13;5057214;28;20432;-73
2021/04/15 09:15:54;;;;;;;8.13;7.30;;;;;;;4.16;60.78;98970.53;5043998;28;20726;-73
2021/04/15 09:18:23;;;;;;;6.70;6.10;;;;;;;4.18;60.69;98971.28;5057600;28;20337;-71
2021/04/15 09:21:03;;;;;;;7.20;6.50;;;;;;;4.37;60.03;98964.84;5056063;28;20308;-73
2021/04/15 09:23:41;;;;;;;8.23;6.93;;;;;;;4.60;59.03;98960.69;5055589;28;20298;-71
2021/04/15 09:26:19;;;;;;;6.90;6.30;;;;;;;4.46;58.32;98959.81;5057621;28;20680;-73
2021/04/15 09:29:04;;;;;;;6.90;6.20;;;;;;;4.49;57.73;98966.66;5055483;28;20630;-73
2021/04/15 09:31:49;;;;;;;6.63;5.90;;;;;;;4.78;57.68;98962.06;5056719;28;20230;-72
2021/04/15 09:34:49;;;;;;;7.43;5.80;;;;;;;4.95;57.99;98959.25;5054010;28;20306;-73
2021/04/15 09:37:32;;;;;;;6.23;5.73;;;;;;;5.12;57.09;98950.22;5054814;28;20207;-74
2021/04/15 09:40:01;;;;;;;6.83;6.07;;;;;;;5.17;57.71;98945.50;5055666;28;20235;-73
2021/04/15 09:42:46;;;;;;;6.50;5.93;;;;;;;5.69;55.90;98943.63;5052624;28;20199;-73
2021/04/15 09:45:34;;;;;;;6.07;5.47;;;;;;;5.91;54.55;98937.66;5059382;28;20209;-73
2021/04/15 09:48:24;;;;;;;6.77;6.07;;;;;;;5.73;53.71;98937.19;5058905;28;20622;-73
2021/04/15 09:50:53;;;;;;;6.97;6.27;;;;;;;5.50;54.84;98942.31;5058226;28;20227;-73
2021/04/15 09:53:37;;;;;;;6.57;6.03;;;;;;;4.90;56.99;98935.91;5058485;28;20212;-73
2021/04/15 09:56:21;;;;;;;6.77;6.13;;;;;;;4.84;57.99;98938.97;5059895;28;20290;-74
2021/04/15 09:58:57;;;;;;;6.77;6.20;;;;;;;4.80;57.23;98940.13;5056851;28;20517;-75
2021/04/15 10:01:27;;;;;;;6.40;5.80;;;;;;;4.51;57.98;98946.41;5060739;28;20226;-75
2021/04/15 10:03:59;;;;;;;6.80;6.17;;;;;;;4.41;59.49;98942.69;5057919;28;20207;-75
2021/04/15 10:06:28;;;;;;;7.77;6.90;;;;;;;4.26;62.23;98948.00;5057416;28;20252;-72
2021/04/15 10:09:21;;;;;;;8.07;6.27;;;;;;;4.28;64.34;98950.53;5056606;28;20209;-74
2021/04/15 10:12:12;;;;;;;6.53;6.03;;;;;;;4.21;62.81;98952.72;5056120;28;20720;-75
2021/04/15 10:15:18;;;;;;;8.87;6.10;;;;;;;4.42;64.55;98944.38;5059371;28;20663;-73
2021/04/15 10:17:59;;;;;;;6.67;6.10;;;;;;;4.34;62.19;98934.38;5059195;28;20207;-72
2021/04/15 10:20:54;;;;;;;7.10;6.53;;;;;;;4.27;61.95;98935.72;5057444;28;20222;-72
2021/04/15 10:23:41;;;;;;;7.10;6.17;;;;;;;4.41;59.24;98940.06;5061438;28;20214;-74
2021/04/15 10:26:21;;;;;;;4.07;3.77;;;;;;;4.66;52.24;98934.03;5059867;28;20297;-72
2021/04/15 10:29:01;;;;;;;2.97;2.77;;;;;;;4.55;49.06;98928.66;5058696;28;20582;-74
2021/04/15 10:31:56;;;;;;;3.40;3.10;;;;;;;4.85;48.85;98925.75;5057874;28;20233;-73
2021/04/15 10:34:53;;;;;;;3.40;3.20;;;;;;;5.26;47.81;98928.25;5058894;28;20222;-75
2021/04/15 10:37:43;;;;;;;3.17;2.97;;;;;;;5.62;47.76;98926.59;5058080;28;20335;-76
2021/04/15 10:40:35;;;;;;;4.53;4.13;;;;;;;5.69;48.56;98929.66;5061206;28;20245;-76
2021/04/15 10:43:49;;;;;;;5.00;4.67;;;;;;;5.88;49.01;98923.91;5057801;28;20207;-76
2021/04/15 10:46:29;;;;;;;4.60;4.23;;;;;;;6.01;49.15;98922.06;5043172;28;20219;-75
2021/04/15 10:49:03;;;;;;;5.43;5.03;;;;;;;6.55;50.35;98917.25;5057942;28;20210;-74
2021/04/15 10:51:35;;;;;;;4.97;4.57;;;;;;;6.86;48.89;98917.56;5058767;28;20226;-75
2021/04/15 10:54:07;;;;;;;4.63;4.23;;;;;;;6.21;47.14;98923.25;5057937;28;20222;-74
2021/04/15 10:56:42;;;;;;;4.40;4.00;;;;;;;5.91;47.23;98921.03;5058344;28;20199;-75
2021/04/15 10:59:27;;;;;;;4.50;4.10;;;;;;;5.75;45.65;98916.88;5058589;28;20234;-74
2021/04/15 11:02:22;;;;;;;3.10;2.80;;;;;;;5.62;42.33;98919.53;5053042;28;20672;-74
2021/04/15 11:04:50;;;;;;;2.43;2.03;;;;;;;5.21;42.27;98907.53;5057383;28;20199;-76
2021/04/15 11:07:20;;;;;;;2.50;2.30;;;;;;;5.13;43.26;98910.72;5055932;28;20487;-74
2021/04/15 11:09:48;;;;;;;2.73;2.57;;;;;;;5.24;43.07;98904.69;5055037;28;20276;-75
2021/04/15 11:12:22;;;;;;;3.80;2.30;;;;;;;5.49;41.23;98902.97;5056255;28;20218;-76
2021/04/15 11:15:11;;;;;;;2.00;1.83;;;;;;;5.70;39.79;98903.22;5056834;28;20457;-74
2021/04/15 11:17:44;;;;;;;2.57;1.90;;;;;;;5.79;38.35;98896.47;5055801;28;20210;-74
2021/04/15 11:20:20;;;;;;;2.50;2.40;;;;;;;6.19;38.95;98901.47;5057909;28;20223;-75
2021/04/15 11:22:54;;;;;;;2.20;2.10;;;;;;;5.91;38.37;98905.25;5058145;28;20666;-77
2021/04/15 11:25:25;;;;;;;3.17;2.87;;;;;;;5.82;38.82;98898.88;5058226;28;20210;-78
2021/04/15 11:27:54;;;;;;;2.53;2.33;;;;;;;5.88;38.10;98900.22;5054219;28;20373;-76
2021/04/15 11:30:34;;;;;;;2.60;2.40;;;;;;;6.26;38.09;98885.22;5058122;28;20326;-75
2021/04/15 11:33:04;;;;;;;3.03;2.83;;;;;;;6.76;38.03;98893.69;5058016;28;20227;-76
2021/04/15 11:35:31;;;;;;;3.40;3.10;;;;;;;6.49;38.39;98889.59;5055587;28;20234;-75
2021/04/15 11:38:16;;;;;;;4.93;3.40;;;;;;;6.66;40.51;98890.94;5055826;28;20578;-76
2021/04/15 11:40:45;;;;;;;3.40;3.20;;;;;;;6.37;42.73;98896.63;5052524;28;20227;-76
2021/04/15 11:43:24;;;;;;;3.40;3.17;;;;;;;6.07;43.73;98902.38;5056606;28;20678;-76
2021/04/15 11:45:51;;;;;;;3.27;2.93;;;;;;;6.52;42.34;98901.69;5055189;28;20214;-75
2021/04/15 11:48:22;;;;;;;5.73;3.27;;;;;;;6.81;43.96;98902.09;5055955;28;20226;-76
2021/04/15 11:50:51;;;;;;;3.33;3.03;;;;;;;7.23;40.56;98912.06;5055464;28;20337;-75
2021/04/15 11:53:38;;;;;;;2.70;2.50;;;;;;;7.04;42.67;98911.84;5057551;28;20246;-77
2021/04/15 11:56:28;;;;;;;2.97;2.77;;;;;;;7.18;41.96;98910.75;5057395;28;20199;-75
2021/04/15 11:59:14;;;;;;;3.23;3.03;;;;;;;7.21;42.48;98916.63;5055919;28;20576;-72
2021/04/15 12:01:41;;;;;;;4.80;4.37;;;;;;;7.46;44.28;98908.59;5056594;28;20573;-72
2021/04/15 12:04:15;;;;;;;5.73;5.23;;;;;;;6.31;52.09;98919.94;5057295;28;20279;-72
2021/04/15 12:06:45;;;;;;;4.80;4.50;;;;;;;5.60;57.03;98920.63;5055576;28;20195;-72
2021/04/15 12:09:15;;;;;;;4.83;4.43;;;;;;;5.69;56.80;98919.94;5056300;28;20211;-72
2021/04/15 12:11:50;;;;;;;4.17;3.87;;;;;;;5.32;55.75;98918.16;5055006;28;20227;-72
2021/04/15 12:14:17;;;;;;;4.40;4.07;;;;;;;5.32;55.58;98917.31;5055179;28;20206;-72